sensor_id;sensor_type;location;lat;lon;timestamp;P1;durP1;ratioP1;P2;durP2;ratioP2
20824;SDS011;10573;50.936;6.978;2024-03-06T00:00:04;41.87;;;25.30;;
20824;SDS011;10573;50.936;6.978;2024-03-06T00:02:32;40.88;;;26.27;;
20824;SDS011;10573;50.936;6.978;2024-03-06T00:04:59;40.38;;;26.38;;
20824;SDS011;10573;50.936;6.978;2024-03-06T00:07:24;40.93;;;26.13;;
20824;SDS011;10573;50.936;6.978;2024-03-06T00:09:49;37.83;;;25.43;;
20824;SDS011;10573;50.936;6.978;2024-03-06T00:12:15;38.37;;;25.37;;
20824;SDS011;10573;50.936;6.978;2024-03-06T00:14:40;38.57;;;25.73;;
20824;SDS011;10573;50.936;6.978;2024-03-06T00:17:13;37.13;;;25.97;;
20824;SDS011;10573;50.936;6.978;2024-03-06T00:19:38;40.25;;;26.33;;
20824;SDS011;10573;50.936;6.978;2024-03-06T00:22:04;41.53;;;26.20;;
20824;SDS011;10573;50.936;6.978;2024-03-06T00:24:29;39.17;;;26.15;;
20824;SDS011;10573;50.936;6.978;2024-03-06T00:26:55;39.87;;;26.03;;
20824;SDS011;10573;50.936;6.978;2024-03-06T00:29:20;43.95;;;27.50;;
20824;SDS011;10573;50.936;6.978;2024-03-06T00:31:45;38.07;;;25.70;;
20824;SDS011;10573;50.936;6.978;2024-03-06T00:34:12;42.13;;;28.07;;
20824;SDS011;10573;50.936;6.978;2024-03-06T00:36:42;40.78;;;26.17;;
20824;SDS011;10573;50.936;6.978;2024-03-06T00:39:08;40.10;;;26.58;;
20824;SDS011;10573;50.936;6.978;2024-03-06T00:41:35;39.80;;;26.40;;
20824;SDS011;10573;50.936;6.978;2024-03-06T00:44:01;40.10;;;26.00;;
20824;SDS011;10573;50.936;6.978;2024-03-06T00:46:27;43.80;;;26.10;;
20824;SDS011;10573;50.936;6.978;2024-03-06T00:48:53;40.30;;;26.52;;
20824;SDS011;10573;50.936;6.978;2024-03-06T00:51:19;39.55;;;25.83;;
20824;SDS011;10573;50.936;6.978;2024-03-06T00:53:45;40.30;;;26.50;;
20824;SDS011;10573;50.936;6.978;2024-03-06T00:56:10;40.03;;;26.88;;
20824;SDS011;10573;50.936;6.978;2024-03-06T00:58:36;42.40;;;26.90;;
20824;SDS011;10573;50.936;6.978;2024-03-06T01:01:02;41.53;;;27.38;;
20824;SDS011;10573;50.936;6.978;2024-03-06T01:03:27;42.22;;;26.90;;
20824;SDS011;10573;50.936;6.978;2024-03-06T01:05:52;45.00;;;27.93;;
20824;SDS011;10573;50.936;6.978;2024-03-06T01:08:18;42.43;;;27.57;;
20824;SDS011;10573;50.936;6.978;2024-03-06T01:10:44;44.50;;;27.58;;
20824;SDS011;10573;50.936;6.978;2024-03-06T01:13:09;44.65;;;27.23;;
20824;SDS011;10573;50.936;6.978;2024-03-06T01:15:36;41.83;;;27.58;;
20824;SDS011;10573;50.936;6.978;2024-03-06T01:18:02;42.45;;;27.67;;
20824;SDS011;10573;50.936;6.978;2024-03-06T01:20:28;41.90;;;27.88;;
20824;SDS011;10573;50.936;6.978;2024-03-06T01:22:54;41.40;;;27.50;;
20824;SDS011;10573;50.936;6.978;2024-03-06T01:25:19;39.47;;;26.47;;
20824;SDS011;10573;50.936;6.978;2024-03-06T01:27:45;45.55;;;28.55;;
20824;SDS011;10573;50.936;6.978;2024-03-06T01:30:12;44.67;;;28.42;;
20824;SDS011;10573;50.936;6.978;2024-03-06T01:32:38;42.60;;;28.42;;
20824;SDS011;10573;50.936;6.978;2024-03-06T01:35:03;41.30;;;27.70;;
20824;SDS011;10573;50.936;6.978;2024-03-06T01:37:30;43.43;;;27.37;;
20824;SDS011;10573;50.936;6.978;2024-03-06T01:39:55;43.07;;;28.20;;
20824;SDS011;10573;50.936;6.978;2024-03-06T01:42:21;48.03;;;28.37;;
20824;SDS011;10573;50.936;6.978;2024-03-06T01:44:46;45.77;;;28.80;;
20824;SDS011;10573;50.936;6.978;2024-03-06T01:47:12;44.50;;;28.00;;
20824;SDS011;10573;50.936;6.978;2024-03-06T01:49:37;41.40;;;26.80;;
20824;SDS011;10573;50.936;6.978;2024-03-06T01:52:02;41.83;;;26.33;;
20824;SDS011;10573;50.936;6.978;2024-03-06T01:54:28;39.63;;;26.37;;
20824;SDS011;10573;50.936;6.978;2024-03-06T01:56:56;44.53;;;27.30;;
20824;SDS011;10573;50.936;6.978;2024-03-06T01:59:25;47.30;;;27.83;;
20824;SDS011;10573;50.936;6.978;2024-03-06T02:01:54;42.17;;;27.10;;
20824;SDS011;10573;50.936;6.978;2024-03-06T02:04:19;42.03;;;27.45;;
20824;SDS011;10573;50.936;6.978;2024-03-06T02:06:45;40.60;;;26.23;;
20824;SDS011;10573;50.936;6.978;2024-03-06T02:09:11;39.28;;;26.27;;
20824;SDS011;10573;50.936;6.978;2024-03-06T02:11:39;39.13;;;26.40;;
20824;SDS011;10573;50.936;6.978;2024-03-06T02:14:05;42.80;;;26.73;;
20824;SDS011;10573;50.936;6.978;2024-03-06T02:16:34;44.10;;;27.55;;
20824;SDS011;10573;50.936;6.978;2024-03-06T02:19:00;39.27;;;26.20;;
20824;SDS011;10573;50.936;6.978;2024-03-06T02:21:25;42.23;;;26.60;;
20824;SDS011;10573;50.936;6.978;2024-03-06T02:23:51;41.17;;;28.17;;
20824;SDS011;10573;50.936;6.978;2024-03-06T02:26:17;41.70;;;27.25;;
20824;SDS011;10573;50.936;6.978;2024-03-06T02:28:46;42.28;;;27.15;;
20824;SDS011;10573;50.936;6.978;2024-03-06T02:31:12;41.97;;;27.00;;
20824;SDS011;10573;50.936;6.978;2024-03-06T02:33:38;40.80;;;26.35;;
20824;SDS011;10573;50.936;6.978;2024-03-06T02:36:04;42.35;;;26.85;;
20824;SDS011;10573;50.936;6.978;2024-03-06T02:38:30;39.58;;;25.40;;
20824;SDS011;10573;50.936;6.978;2024-03-06T02:40:56;38.73;;;25.57;;
20824;SDS011;10573;50.936;6.978;2024-03-06T02:43:21;37.20;;;24.83;;
20824;SDS011;10573;50.936;6.978;2024-03-06T02:45:46;38.67;;;25.93;;
20824;SDS011;10573;50.936;6.978;2024-03-06T02:48:12;35.07;;;24.50;;
20824;SDS011;10573;50.936;6.978;2024-03-06T02:50:37;41.23;;;25.07;;
20824;SDS011;10573;50.936;6.978;2024-03-06T02:53:02;38.13;;;24.83;;
20824;SDS011;10573;50.936;6.978;2024-03-06T02:55:28;33.83;;;23.55;;
20824;SDS011;10573;50.936;6.978;2024-03-06T02:57:53;37.57;;;23.77;;
20824;SDS011;10573;50.936;6.978;2024-03-06T03:00:19;39.83;;;24.80;;
20824;SDS011;10573;50.936;6.978;2024-03-06T03:02:44;36.85;;;24.55;;
20824;SDS011;10573;50.936;6.978;2024-03-06T03:05:09;36.07;;;24.83;;
20824;SDS011;10573;50.936;6.978;2024-03-06T03:07:35;37.13;;;23.92;;
20824;SDS011;10573;50.936;6.978;2024-03-06T03:10:00;34.43;;;24.17;;
20824;SDS011;10573;50.936;6.978;2024-03-06T03:12:26;35.67;;;23.53;;
20824;SDS011;10573;50.936;6.978;2024-03-06T03:14:51;35.72;;;22.42;;
20824;SDS011;10573;50.936;6.978;2024-03-06T03:17:18;38.10;;;23.70;;
20824;SDS011;10573;50.936;6.978;2024-03-06T03:19:44;35.17;;;23.52;;
20824;SDS011;10573;50.936;6.978;2024-03-06T03:22:10;33.83;;;22.63;;
20824;SDS011;10573;50.936;6.978;2024-03-06T03:24:35;36.92;;;23.02;;
20824;SDS011;10573;50.936;6.978;2024-03-06T03:27:02;35.50;;;23.73;;
20824;SDS011;10573;50.936;6.978;2024-03-06T03:29:27;40.30;;;23.33;;
20824;SDS011;10573;50.936;6.978;2024-03-06T03:31:54;33.78;;;22.17;;
20824;SDS011;10573;50.936;6.978;2024-03-06T03:34:20;37.03;;;23.47;;
20824;SDS011;10573;50.936;6.978;2024-03-06T03:36:46;33.67;;;23.25;;
20824;SDS011;10573;50.936;6.978;2024-03-06T03:39:12;36.85;;;23.63;;
20824;SDS011;10573;50.936;6.978;2024-03-06T03:41:47;32.75;;;22.52;;
20824;SDS011;10573;50.936;6.978;2024-03-06T03:44:13;32.38;;;22.17;;
20824;SDS011;10573;50.936;6.978;2024-03-06T03:46:44;35.50;;;23.05;;
20824;SDS011;10573;50.936;6.978;2024-03-06T03:49:09;34.85;;;22.42;;
20824;SDS011;10573;50.936;6.978;2024-03-06T03:51:35;36.47;;;22.50;;
20824;SDS011;10573;50.936;6.978;2024-03-06T03:54:02;34.40;;;22.27;;
20824;SDS011;10573;50.936;6.978;2024-03-06T03:56:27;34.00;;;22.42;;
20824;SDS011;10573;50.936;6.978;2024-03-06T03:58:53;35.00;;;22.57;;
20824;SDS011;10573;50.936;6.978;2024-03-06T04:01:18;32.77;;;21.17;;
20824;SDS011;10573;50.936;6.978;2024-03-06T04:03:44;33.58;;;21.02;;
20824;SDS011;10573;50.936;6.978;2024-03-06T04:06:10;31.63;;;21.00;;
20824;SDS011;10573;50.936;6.978;2024-03-06T04:08:35;33.22;;;21.35;;
20824;SDS011;10573;50.936;6.978;2024-03-06T04:11:02;30.92;;;20.40;;
20824;SDS011;10573;50.936;6.978;2024-03-06T04:13:31;27.93;;;19.13;;
20824;SDS011;10573;50.936;6.978;2024-03-06T04:16:01;22.42;;;15.82;;
20824;SDS011;10573;50.936;6.978;2024-03-06T04:18:27;27.33;;;17.53;;
20824;SDS011;10573;50.936;6.978;2024-03-06T04:20:53;22.42;;;15.05;;
20824;SDS011;10573;50.936;6.978;2024-03-06T04:23:19;18.50;;;13.30;;
20824;SDS011;10573;50.936;6.978;2024-03-06T04:25:44;22.87;;;13.20;;
20824;SDS011;10573;50.936;6.978;2024-03-06T04:28:10;21.47;;;13.60;;
20824;SDS011;10573;50.936;6.978;2024-03-06T04:30:35;16.88;;;10.40;;
20824;SDS011;10573;50.936;6.978;2024-03-06T04:33:00;10.93;;;8.63;;
20824;SDS011;10573;50.936;6.978;2024-03-06T04:35:26;13.20;;;8.90;;
20824;SDS011;10573;50.936;6.978;2024-03-06T04:37:51;11.60;;;8.50;;
20824;SDS011;10573;50.936;6.978;2024-03-06T04:40:17;12.10;;;8.47;;
20824;SDS011;10573;50.936;6.978;2024-03-06T04:42:45;11.20;;;8.07;;
20824;SDS011;10573;50.936;6.978;2024-03-06T04:45:14;9.27;;;7.20;;
20824;SDS011;10573;50.936;6.978;2024-03-06T04:47:41;10.70;;;7.60;;
20824;SDS011;10573;50.936;6.978;2024-03-06T04:50:10;9.43;;;7.43;;
20824;SDS011;10573;50.936;6.978;2024-03-06T04:52:36;9.23;;;7.18;;
20824;SDS011;10573;50.936;6.978;2024-03-06T04:55:06;9.30;;;7.32;;
20824;SDS011;10573;50.936;6.978;2024-03-06T04:57:32;13.20;;;7.00;;
20824;SDS011;10573;50.936;6.978;2024-03-06T04:59:59;9.63;;;6.33;;
20824;SDS011;10573;50.936;6.978;2024-03-06T05:02:25;10.43;;;6.03;;
20824;SDS011;10573;50.936;6.978;2024-03-06T05:04:53;8.60;;;6.68;;
20824;SDS011;10573;50.936;6.978;2024-03-06T05:07:18;11.60;;;6.70;;
20824;SDS011;10573;50.936;6.978;2024-03-06T05:09:44;10.73;;;6.27;;
20824;SDS011;10573;50.936;6.978;2024-03-06T05:12:09;8.75;;;5.72;;
20824;SDS011;10573;50.936;6.978;2024-03-06T05:14:34;7.40;;;5.70;;
20824;SDS011;10573;50.936;6.978;2024-03-06T05:17:01;7.97;;;5.60;;
20824;SDS011;10573;50.936;6.978;2024-03-06T05:19:27;6.67;;;5.10;;
20824;SDS011;10573;50.936;6.978;2024-03-06T05:21:57;8.40;;;5.10;;
20824;SDS011;10573;50.936;6.978;2024-03-06T05:24:23;10.45;;;5.40;;
20824;SDS011;10573;50.936;6.978;2024-03-06T05:26:49;11.18;;;5.38;;
20824;SDS011;10573;50.936;6.978;2024-03-06T05:29:14;7.67;;;5.50;;
20824;SDS011;10573;50.936;6.978;2024-03-06T05:31:40;7.83;;;4.53;;
20824;SDS011;10573;50.936;6.978;2024-03-06T05:34:06;7.93;;;4.90;;
20824;SDS011;10573;50.936;6.978;2024-03-06T05:36:31;7.27;;;4.60;;
20824;SDS011;10573;50.936;6.978;2024-03-06T05:38:56;8.35;;;4.60;;
20824;SDS011;10573;50.936;6.978;2024-03-06T05:41:22;7.07;;;4.47;;
20824;SDS011;10573;50.936;6.978;2024-03-06T05:43:47;7.97;;;4.47;;
20824;SDS011;10573;50.936;6.978;2024-03-06T05:46:13;7.03;;;4.63;;
20824;SDS011;10573;50.936;6.978;2024-03-06T05:48:38;4.53;;;3.97;;
20824;SDS011;10573;50.936;6.978;2024-03-06T05:51:04;8.93;;;4.43;;
20824;SDS011;10573;50.936;6.978;2024-03-06T05:53:30;5.68;;;4.22;;
20824;SDS011;10573;50.936;6.978;2024-03-06T05:55:56;6.63;;;4.20;;
20824;SDS011;10573;50.936;6.978;2024-03-06T05:58:21;7.07;;;4.80;;
20824;SDS011;10573;50.936;6.978;2024-03-06T06:00:46;7.25;;;4.43;;
20824;SDS011;10573;50.936;6.978;2024-03-06T06:03:12;5.87;;;4.53;;
20824;SDS011;10573;50.936;6.978;2024-03-06T06:05:38;7.23;;;4.90;;
20824;SDS011;10573;50.936;6.978;2024-03-06T06:08:04;6.77;;;5.00;;
20824;SDS011;10573;50.936;6.978;2024-03-06T06:10:30;6.83;;;4.43;;
20824;SDS011;10573;50.936;6.978;2024-03-06T06:12:55;6.23;;;4.20;;
20824;SDS011;10573;50.936;6.978;2024-03-06T06:15:21;5.35;;;4.40;;
20824;SDS011;10573;50.936;6.978;2024-03-06T06:17:47;6.95;;;4.47;;
20824;SDS011;10573;50.936;6.978;2024-03-06T06:20:13;7.73;;;5.13;;
20824;SDS011;10573;50.936;6.978;2024-03-06T06:22:43;7.78;;;4.80;;
20824;SDS011;10573;50.936;6.978;2024-03-06T06:25:09;7.03;;;4.50;;
20824;SDS011;10573;50.936;6.978;2024-03-06T06:27:35;6.60;;;4.70;;
20824;SDS011;10573;50.936;6.978;2024-03-06T06:30:01;6.27;;;4.20;;
20824;SDS011;10573;50.936;6.978;2024-03-06T06:32:26;7.90;;;4.60;;
20824;SDS011;10573;50.936;6.978;2024-03-06T06:34:52;8.73;;;4.40;;
20824;SDS011;10573;50.936;6.978;2024-03-06T06:37:17;6.97;;;4.20;;
20824;SDS011;10573;50.936;6.978;2024-03-06T06:39:44;5.13;;;3.83;;
20824;SDS011;10573;50.936;6.978;2024-03-06T06:42:10;7.25;;;3.75;;
20824;SDS011;10573;50.936;6.978;2024-03-06T06:44:36;5.87;;;3.90;;
20824;SDS011;10573;50.936;6.978;2024-03-06T06:47:02;6.32;;;4.03;;
20824;SDS011;10573;50.936;6.978;2024-03-06T06:49:27;5.00;;;3.70;;
20824;SDS011;10573;50.936;6.978;2024-03-06T06:51:53;8.57;;;3.80;;
20824;SDS011;10573;50.936;6.978;2024-03-06T06:54:18;6.23;;;3.93;;
20824;SDS011;10573;50.936;6.978;2024-03-06T06:56:44;6.73;;;4.73;;
20824;SDS011;10573;50.936;6.978;2024-03-06T06:59:09;8.60;;;4.10;;
20824;SDS011;10573;50.936;6.978;2024-03-06T07:01:34;5.87;;;4.17;;
20824;SDS011;10573;50.936;6.978;2024-03-06T07:04:00;6.82;;;4.00;;
20824;SDS011;10573;50.936;6.978;2024-03-06T07:06:27;6.15;;;4.00;;
20824;SDS011;10573;50.936;6.978;2024-03-06T07:08:52;6.60;;;4.20;;
20824;SDS011;10573;50.936;6.978;2024-03-06T07:11:18;5.17;;;4.17;;
20824;SDS011;10573;50.936;6.978;2024-03-06T07:13:44;6.95;;;4.40;;
20824;SDS011;10573;50.936;6.978;2024-03-06T07:16:09;6.47;;;3.73;;
20824;SDS011;10573;50.936;6.978;2024-03-06T07:18:35;5.15;;;3.55;;
20824;SDS011;10573;50.936;6.978;2024-03-06T07:21:00;4.50;;;3.63;;
20824;SDS011;10573;50.936;6.978;2024-03-06T07:23:26;6.30;;;4.10;;
20824;SDS011;10573;50.936;6.978;2024-03-06T07:25:51;4.47;;;3.60;;
20824;SDS011;10573;50.936;6.978;2024-03-06T07:28:17;4.60;;;3.33;;
20824;SDS011;10573;50.936;6.978;2024-03-06T07:30:43;6.50;;;4.30;;
20824;SDS011;10573;50.936;6.978;2024-03-06T07:33:08;6.70;;;3.77;;
20824;SDS011;10573;50.936;6.978;2024-03-06T07:35:33;7.90;;;4.13;;
20824;SDS011;10573;50.936;6.978;2024-03-06T07:38:01;6.50;;;4.30;;
20824;SDS011;10573;50.936;6.978;2024-03-06T07:40:29;8.70;;;4.80;;
20824;SDS011;10573;50.936;6.978;2024-03-06T07:42:55;6.80;;;5.20;;
20824;SDS011;10573;50.936;6.978;2024-03-06T07:45:20;7.77;;;5.33;;
20824;SDS011;10573;50.936;6.978;2024-03-06T07:47:46;6.77;;;5.77;;
20824;SDS011;10573;50.936;6.978;2024-03-06T07:50:11;9.10;;;5.97;;
20824;SDS011;10573;50.936;6.978;2024-03-06T07:52:37;8.35;;;6.75;;
20824;SDS011;10573;50.936;6.978;2024-03-06T07:55:03;11.00;;;7.00;;
20824;SDS011;10573;50.936;6.978;2024-03-06T07:57:29;10.63;;;8.43;;
20824;SDS011;10573;50.936;6.978;2024-03-06T07:59:54;12.38;;;8.50;;
20824;SDS011;10573;50.936;6.978;2024-03-06T08:02:20;13.13;;;10.10;;
20824;SDS011;10573;50.936;6.978;2024-03-06T08:04:46;13.95;;;9.75;;
20824;SDS011;10573;50.936;6.978;2024-03-06T08:07:12;13.55;;;9.88;;
20824;SDS011;10573;50.936;6.978;2024-03-06T08:09:38;11.95;;;9.18;;
20824;SDS011;10573;50.936;6.978;2024-03-06T08:12:03;14.17;;;8.70;;
20824;SDS011;10573;50.936;6.978;2024-03-06T08:14:29;12.80;;;9.10;;
20824;SDS011;10573;50.936;6.978;2024-03-06T08:16:54;15.35;;;9.13;;
20824;SDS011;10573;50.936;6.978;2024-03-06T08:19:20;10.43;;;7.30;;
20824;SDS011;10573;50.936;6.978;2024-03-06T08:21:46;11.07;;;7.70;;
20824;SDS011;10573;50.936;6.978;2024-03-06T08:24:12;11.85;;;7.80;;
20824;SDS011;10573;50.936;6.978;2024-03-06T08:26:37;11.80;;;8.50;;
20824;SDS011;10573;50.936;6.978;2024-03-06T08:29:03;14.53;;;9.70;;
20824;SDS011;10573;50.936;6.978;2024-03-06T08:31:28;12.77;;;8.70;;
20824;SDS011;10573;50.936;6.978;2024-03-06T08:33:54;16.42;;;9.43;;
20824;SDS011;10573;50.936;6.978;2024-03-06T08:36:19;13.73;;;9.60;;
20824;SDS011;10573;50.936;6.978;2024-03-06T08:38:46;13.00;;;8.97;;
20824;SDS011;10573;50.936;6.978;2024-03-06T08:41:11;15.70;;;9.00;;
20824;SDS011;10573;50.936;6.978;2024-03-06T08:43:37;14.87;;;9.13;;
20824;SDS011;10573;50.936;6.978;2024-03-06T08:46:03;12.60;;;9.30;;
20824;SDS011;10573;50.936;6.978;2024-03-06T08:48:29;14.18;;;9.65;;
20824;SDS011;10573;50.936;6.978;2024-03-06T08:50:54;12.60;;;8.90;;
20824;SDS011;10573;50.936;6.978;2024-03-06T08:53:20;21.10;;;12.40;;
20824;SDS011;10573;50.936;6.978;2024-03-06T08:55:45;15.80;;;9.30;;
20824;SDS011;10573;50.936;6.978;2024-03-06T08:58:10;13.97;;;9.60;;
20824;SDS011;10573;50.936;6.978;2024-03-06T09:00:36;14.97;;;8.83;;
20824;SDS011;10573;50.936;6.978;2024-03-06T09:03:02;11.27;;;8.25;;
20824;SDS011;10573;50.936;6.978;2024-03-06T09:05:28;12.10;;;8.52;;
20824;SDS011;10573;50.936;6.978;2024-03-06T09:07:53;12.13;;;9.00;;
20824;SDS011;10573;50.936;6.978;2024-03-06T09:10:19;12.35;;;7.40;;
20824;SDS011;10573;50.936;6.978;2024-03-06T09:12:44;12.50;;;7.60;;
20824;SDS011;10573;50.936;6.978;2024-03-06T09:15:10;10.20;;;7.10;;
20824;SDS011;10573;50.936;6.978;2024-03-06T09:17:37;16.88;;;8.60;;
20824;SDS011;10573;50.936;6.978;2024-03-06T09:20:03;16.03;;;8.97;;
20824;SDS011;10573;50.936;6.978;2024-03-06T09:22:36;14.55;;;7.90;;
20824;SDS011;10573;50.936;6.978;2024-03-06T09:25:02;11.93;;;7.75;;
20824;SDS011;10573;50.936;6.978;2024-03-06T09:27:28;10.10;;;7.35;;
20824;SDS011;10573;50.936;6.978;2024-03-06T09:29:54;9.13;;;6.57;;
20824;SDS011;10573;50.936;6.978;2024-03-06T09:32:19;7.60;;;6.20;;
20824;SDS011;10573;50.936;6.978;2024-03-06T09:34:47;9.43;;;6.63;;
20824;SDS011;10573;50.936;6.978;2024-03-06T09:37:13;9.95;;;6.95;;
20824;SDS011;10573;50.936;6.978;2024-03-06T09:39:39;9.80;;;7.28;;
20824;SDS011;10573;50.936;6.978;2024-03-06T09:42:05;10.50;;;6.20;;
20824;SDS011;10573;50.936;6.978;2024-03-06T09:44:30;10.77;;;6.93;;
20824;SDS011;10573;50.936;6.978;2024-03-06T09:46:56;9.30;;;5.93;;
20824;SDS011;10573;50.936;6.978;2024-03-06T09:49:28;10.43;;;5.95;;
20824;SDS011;10573;50.936;6.978;2024-03-06T09:51:55;18.17;;;6.43;;
20824;SDS011;10573;50.936;6.978;2024-03-06T09:54:23;15.80;;;6.70;;
20824;SDS011;10573;50.936;6.978;2024-03-06T09:56:51;16.00;;;6.93;;
20824;SDS011;10573;50.936;6.978;2024-03-06T09:59:16;11.37;;;7.00;;
20824;SDS011;10573;50.936;6.978;2024-03-06T10:04:21;10.68;;;7.63;;
20824;SDS011;10573;50.936;6.978;2024-03-06T10:06:47;12.48;;;8.25;;
20824;SDS011;10573;50.936;6.978;2024-03-06T10:09:17;10.65;;;7.95;;
20824;SDS011;10573;50.936;6.978;2024-03-06T10:11:44;11.85;;;7.95;;
20824;SDS011;10573;50.936;6.978;2024-03-06T10:14:10;15.43;;;8.85;;
20824;SDS011;10573;50.936;6.978;2024-03-06T10:19:24;14.65;;;8.90;;
20824;SDS011;10573;50.936;6.978;2024-03-06T10:21:53;15.57;;;8.93;;
20824;SDS011;10573;50.936;6.978;2024-03-06T10:24:28;12.15;;;8.55;;
20824;SDS011;10573;50.936;6.978;2024-03-06T10:26:55;14.23;;;9.02;;
20824;SDS011;10573;50.936;6.978;2024-03-06T10:29:25;15.00;;;9.13;;
20824;SDS011;10573;50.936;6.978;2024-03-06T10:31:53;15.77;;;9.68;;
20824;SDS011;10573;50.936;6.978;2024-03-06T10:34:23;16.42;;;10.43;;
20824;SDS011;10573;50.936;6.978;2024-03-06T10:36:56;15.23;;;10.18;;
20824;SDS011;10573;50.936;6.978;2024-03-06T10:39:23;15.55;;;10.70;;
20824;SDS011;10573;50.936;6.978;2024-03-06T10:41:52;14.50;;;10.30;;
20824;SDS011;10573;50.936;6.978;2024-03-06T10:44:22;14.65;;;10.93;;
20824;SDS011;10573;50.936;6.978;2024-03-06T10:47:03;15.80;;;11.50;;
20824;SDS011;10573;50.936;6.978;2024-03-06T10:49:31;16.83;;;11.60;;
20824;SDS011;10573;50.936;6.978;2024-03-06T10:54:29;17.42;;;11.38;;
20824;SDS011;10573;50.936;6.978;2024-03-06T10:57:00;23.95;;;15.98;;
20824;SDS011;10573;50.936;6.978;2024-03-06T10:59:28;24.05;;;17.05;;
20824;SDS011;10573;50.936;6.978;2024-03-06T11:01:55;26.27;;;17.55;;
20824;SDS011;10573;50.936;6.978;2024-03-06T11:04:22;27.27;;;17.80;;
20824;SDS011;10573;50.936;6.978;2024-03-06T11:06:50;26.73;;;17.85;;
20824;SDS011;10573;50.936;6.978;2024-03-06T11:09:16;26.27;;;18.15;;
20824;SDS011;10573;50.936;6.978;2024-03-06T11:11:51;29.20;;;17.73;;
20824;SDS011;10573;50.936;6.978;2024-03-06T11:14:17;24.23;;;17.00;;
20824;SDS011;10573;50.936;6.978;2024-03-06T11:19:31;26.25;;;17.45;;
20824;SDS011;10573;50.936;6.978;2024-03-06T11:21:58;24.23;;;17.05;;
20824;SDS011;10573;50.936;6.978;2024-03-06T11:24:31;26.42;;;17.45;;
20824;SDS011;10573;50.936;6.978;2024-03-06T11:27:01;24.52;;;16.88;;
20824;SDS011;10573;50.936;6.978;2024-03-06T11:30:03;23.55;;;16.30;;
20824;SDS011;10573;50.936;6.978;2024-03-06T11:32:57;20.60;;;14.68;;
20824;SDS011;10573;50.936;6.978;2024-03-06T11:35:29;21.48;;;15.02;;
20824;SDS011;10573;50.936;6.978;2024-03-06T11:37:55;18.90;;;14.23;;
20824;SDS011;10573;50.936;6.978;2024-03-06T11:40:24;20.50;;;14.20;;
20824;SDS011;10573;50.936;6.978;2024-03-06T11:42:49;21.63;;;15.07;;
20824;SDS011;10573;50.936;6.978;2024-03-06T11:45:15;19.93;;;14.33;;
20824;SDS011;10573;50.936;6.978;2024-03-06T11:50:27;21.05;;;14.45;;
20824;SDS011;10573;50.936;6.978;2024-03-06T11:52:53;19.98;;;14.07;;
20824;SDS011;10573;50.936;6.978;2024-03-06T11:55:20;17.73;;;13.07;;
20824;SDS011;10573;50.936;6.978;2024-03-06T11:57:47;16.00;;;12.20;;
20824;SDS011;10573;50.936;6.978;2024-03-06T12:00:13;18.47;;;12.70;;
20824;SDS011;10573;50.936;6.978;2024-03-06T12:02:40;18.48;;;11.90;;
20824;SDS011;10573;50.936;6.978;2024-03-06T12:05:05;16.77;;;12.15;;
20824;SDS011;10573;50.936;6.978;2024-03-06T12:07:31;19.35;;;12.63;;
20824;SDS011;10573;50.936;6.978;2024-03-06T12:09:57;16.95;;;11.98;;
20824;SDS011;10573;50.936;6.978;2024-03-06T12:12:23;17.15;;;11.68;;
20824;SDS011;10573;50.936;6.978;2024-03-06T12:14:57;16.00;;;10.50;;
20824;SDS011;10573;50.936;6.978;2024-03-06T12:17:24;15.77;;;11.10;;
20824;SDS011;10573;50.936;6.978;2024-03-06T12:19:49;12.65;;;9.82;;
20824;SDS011;10573;50.936;6.978;2024-03-06T12:22:15;13.50;;;10.57;;
20824;SDS011;10573;50.936;6.978;2024-03-06T12:24:40;15.87;;;10.40;;
20824;SDS011;10573;50.936;6.978;2024-03-06T12:27:08;12.32;;;10.15;;
20824;SDS011;10573;50.936;6.978;2024-03-06T12:29:34;16.40;;;11.95;;
20824;SDS011;10573;50.936;6.978;2024-03-06T12:32:04;17.33;;;11.48;;
20824;SDS011;10573;50.936;6.978;2024-03-06T12:34:29;15.85;;;11.75;;
20824;SDS011;10573;50.936;6.978;2024-03-06T12:36:55;14.73;;;11.10;;
20824;SDS011;10573;50.936;6.978;2024-03-06T12:39:21;17.08;;;10.95;;
20824;SDS011;10573;50.936;6.978;2024-03-06T12:41:49;14.20;;;11.05;;
20824;SDS011;10573;50.936;6.978;2024-03-06T12:44:18;12.98;;;10.55;;
20824;SDS011;10573;50.936;6.978;2024-03-06T12:46:44;14.98;;;11.38;;
20824;SDS011;10573;50.936;6.978;2024-03-06T12:49:10;13.83;;;11.13;;
20824;SDS011;10573;50.936;6.978;2024-03-06T12:51:35;14.27;;;11.73;;
20824;SDS011;10573;50.936;6.978;2024-03-06T12:54:01;14.07;;;11.40;;
20824;SDS011;10573;50.936;6.978;2024-03-06T12:56:26;12.10;;;10.07;;
20824;SDS011;10573;50.936;6.978;2024-03-06T12:58:52;11.88;;;10.05;;
20824;SDS011;10573;50.936;6.978;2024-03-06T13:01:17;13.38;;;9.93;;
20824;SDS011;10573;50.936;6.978;2024-03-06T13:03:43;11.00;;;9.10;;
20824;SDS011;10573;50.936;6.978;2024-03-06T13:06:08;10.23;;;9.00;;
20824;SDS011;10573;50.936;6.978;2024-03-06T13:08:34;9.60;;;8.00;;
20824;SDS011;10573;50.936;6.978;2024-03-06T13:10:59;11.52;;;8.30;;
20824;SDS011;10573;50.936;6.978;2024-03-06T13:13:25;10.17;;;7.80;;
20824;SDS011;10573;50.936;6.978;2024-03-06T13:15:51;9.93;;;8.47;;
20824;SDS011;10573;50.936;6.978;2024-03-06T13:18:16;10.00;;;7.93;;
20824;SDS011;10573;50.936;6.978;2024-03-06T13:20:42;11.15;;;8.57;;
20824;SDS011;10573;50.936;6.978;2024-03-06T13:23:09;8.93;;;7.70;;
20824;SDS011;10573;50.936;6.978;2024-03-06T13:25:34;9.97;;;7.90;;
20824;SDS011;10573;50.936;6.978;2024-03-06T13:28:00;8.80;;;6.95;;
20824;SDS011;10573;50.936;6.978;2024-03-06T13:30:26;9.67;;;7.60;;
20824;SDS011;10573;50.936;6.978;2024-03-06T13:32:51;8.00;;;7.07;;
20824;SDS011;10573;50.936;6.978;2024-03-06T13:35:16;8.05;;;6.57;;
20824;SDS011;10573;50.936;6.978;2024-03-06T13:37:45;11.60;;;8.47;;
20824;SDS011;10573;50.936;6.978;2024-03-06T13:40:11;7.38;;;6.65;;
20824;SDS011;10573;50.936;6.978;2024-03-06T13:42:38;8.50;;;6.90;;
20824;SDS011;10573;50.936;6.978;2024-03-06T13:45:07;8.93;;;6.38;;
20824;SDS011;10573;50.936;6.978;2024-03-06T13:47:37;7.60;;;6.15;;
20824;SDS011;10573;50.936;6.978;2024-03-06T13:50:14;7.80;;;6.35;;
20824;SDS011;10573;50.936;6.978;2024-03-06T13:52:41;8.32;;;6.63;;
20824;SDS011;10573;50.936;6.978;2024-03-06T13:55:06;8.63;;;6.73;;
20824;SDS011;10573;50.936;6.978;2024-03-06T13:57:33;8.10;;;7.03;;
20824;SDS011;10573;50.936;6.978;2024-03-06T14:00:03;7.85;;;6.82;;
20824;SDS011;10573;50.936;6.978;2024-03-06T14:02:30;8.38;;;6.80;;
20824;SDS011;10573;50.936;6.978;2024-03-06T14:04:56;8.52;;;5.90;;
20824;SDS011;10573;50.936;6.978;2024-03-06T14:07:22;7.47;;;6.30;;
20824;SDS011;10573;50.936;6.978;2024-03-06T14:09:48;6.82;;;6.13;;
20824;SDS011;10573;50.936;6.978;2024-03-06T14:12:17;6.57;;;5.68;;
20824;SDS011;10573;50.936;6.978;2024-03-06T14:14:43;7.70;;;5.57;;
20824;SDS011;10573;50.936;6.978;2024-03-06T14:17:10;6.15;;;5.43;;
20824;SDS011;10573;50.936;6.978;2024-03-06T14:19:36;7.18;;;5.50;;
20824;SDS011;10573;50.936;6.978;2024-03-06T14:22:01;5.95;;;5.22;;
20824;SDS011;10573;50.936;6.978;2024-03-06T14:24:27;7.00;;;5.30;;
20824;SDS011;10573;50.936;6.978;2024-03-06T14:26:52;6.87;;;5.00;;
20824;SDS011;10573;50.936;6.978;2024-03-06T14:29:17;5.97;;;5.20;;
20824;SDS011;10573;50.936;6.978;2024-03-06T14:31:44;5.40;;;4.50;;
20824;SDS011;10573;50.936;6.978;2024-03-06T14:34:09;5.20;;;4.32;;
20824;SDS011;10573;50.936;6.978;2024-03-06T14:36:35;5.95;;;4.40;;
20824;SDS011;10573;50.936;6.978;2024-03-06T14:39:01;6.83;;;4.57;;
20824;SDS011;10573;50.936;6.978;2024-03-06T14:41:26;6.47;;;4.40;;